createdAt,value
2023-05-15T00:02:07.344Z,82.80
2023-05-15T00:05:49.474Z,83.00
2023-05-15T00:09:31.327Z,83.30
2023-05-15T00:13:13.201Z,83.60
2023-05-15T00:16:55.075Z,83.80
2023-05-15T00:20:36.922Z,84.00
2023-05-15T00:24:18.813Z,84.40
2023-05-15T00:28:00.609Z,84.60
2023-05-15T00:31:42.466Z,84.90
2023-05-15T00:35:24.631Z,85.20
2023-05-15T00:39:06.644Z,85.40
2023-05-15T00:42:49.980Z,85.50
2023-05-15T00:46:32.490Z,85.70
2023-05-15T00:50:15.209Z,86.10
2023-05-15T00:53:58.959Z,86.20
2023-05-15T00:57:43.493Z,86.30
2023-05-15T01:01:25.849Z,86.30
2023-05-15T01:05:09.026Z,86.00
2023-05-15T01:08:53.621Z,86.00
2023-05-15T01:12:37.614Z,86.20
2023-05-15T01:16:21.931Z,86.40
2023-05-15T01:20:10.321Z,86.50
2023-05-15T01:24:20.149Z,86.20
2023-05-15T01:28:10.938Z,85.50
2023-05-15T01:32:00.686Z,85.50
2023-05-15T01:35:59.486Z,85.50
2023-05-15T01:39:44.224Z,85.40
2023-05-15T01:43:30.101Z,85.80
2023-05-15T01:47:31.008Z,85.50
2023-05-15T01:51:14.895Z,85.20
2023-05-15T01:54:58.404Z,85.50
2023-05-15T01:58:42.831Z,85.40
2023-05-15T02:02:24.980Z,85.20
2023-05-15T02:06:08.125Z,84.90
2023-05-15T02:09:52.537Z,84.80
2023-05-15T02:13:34.931Z,84.90
2023-05-15T02:17:17.136Z,85.10
2023-05-15T02:21:01.097Z,84.60
2023-05-15T02:24:42.925Z,84.50
2023-05-15T02:28:38.911Z,84.20
2023-05-15T02:32:34.054Z,83.90
2023-05-15T02:36:20.842Z,83.80
2023-05-15T02:40:07.079Z,84.00
2023-05-15T02:43:51.695Z,84.50
2023-05-15T02:47:34.327Z,84.10
2023-05-15T02:51:16.547Z,84.30
2023-05-15T02:54:58.357Z,84.10
2023-05-15T02:58:40.970Z,84.20
2023-05-15T03:02:23.086Z,83.40
2023-05-15T03:06:05.010Z,83.30
2023-05-15T03:09:46.819Z,82.70
2023-05-15T03:13:28.643Z,82.90
2023-05-15T03:17:10.614Z,82.30
2023-05-15T03:20:53.014Z,82.10
2023-05-15T03:24:34.906Z,81.90
2023-05-15T03:28:16.718Z,81.90
2023-05-15T03:31:58.611Z,81.50
2023-05-15T03:35:40.595Z,81.20
2023-05-15T03:39:22.398Z,80.70
2023-05-15T03:43:04.188Z,80.00
2023-05-15T03:46:46.027Z,79.60
2023-05-15T03:50:27.965Z,79.20
2023-05-15T03:54:09.942Z,79.40
2023-05-15T03:57:51.853Z,78.90
2023-05-15T04:01:40.966Z,79.10
2023-05-15T04:05:29.375Z,79.20
2023-05-15T04:09:11.352Z,78.80
2023-05-15T04:12:53.205Z,78.60
2023-05-15T04:16:35.100Z,78.50
2023-05-15T04:20:19.052Z,78.50
2023-05-15T04:24:00.895Z,78.30
2023-05-15T04:27:43.823Z,78.20
2023-05-15T04:31:27.257Z,78.20
2023-05-15T04:35:12.500Z,77.70
2023-05-15T04:38:54.372Z,77.70
2023-05-15T04:42:39.117Z,77.50
2023-05-15T04:46:21.863Z,77.50
2023-05-15T04:50:04.036Z,76.90
2023-05-15T04:53:45.898Z,77.00
2023-05-15T04:57:28.034Z,77.30
2023-05-15T05:01:09.916Z,77.50
2023-05-15T05:04:51.877Z,77.50
2023-05-15T05:08:33.700Z,77.80
2023-05-15T05:12:15.631Z,77.90
2023-05-15T05:15:57.469Z,77.90
2023-05-15T05:19:39.407Z,77.40
2023-05-15T05:23:21.559Z,77.20
2023-05-15T05:27:04.275Z,77.20
2023-05-15T05:30:46.586Z,77.20
2023-05-15T05:34:28.598Z,76.80
2023-05-15T05:38:10.660Z,76.40
2023-05-15T05:41:52.491Z,76.20
2023-05-15T05:45:34.321Z,76.40
2023-05-15T05:49:16.114Z,76.60
2023-05-15T05:52:57.975Z,76.20
2023-05-15T05:56:39.780Z,76.40
2023-05-15T06:00:21.980Z,76.30
2023-05-15T06:04:03.934Z,76.70
2023-05-15T06:07:45.809Z,76.40
2023-05-15T06:11:27.658Z,76.10
2023-05-15T06:15:09.864Z,76.10
2023-05-15T06:18:54.535Z,76.10
2023-05-15T06:22:37.087Z,75.00
2023-05-15T06:26:18.943Z,75.00
2023-05-15T06:30:00.764Z,74.60
2023-05-15T06:33:42.544Z,74.60
2023-05-15T06:37:24.372Z,73.90
2023-05-15T06:41:06.302Z,72.10
2023-05-15T06:44:49.690Z,71.00
2023-05-15T06:48:31.470Z,71.10
2023-05-15T06:52:13.409Z,70.50
2023-05-15T06:55:55.201Z,69.00
2023-05-15T06:59:37.038Z,67.80
2023-05-15T07:03:18.965Z,67.00
2023-05-15T07:07:00.917Z,66.40
2023-05-15T07:10:42.735Z,65.40
2023-05-15T07:14:25.058Z,65.10
2023-05-15T07:18:07.326Z,65.40
2023-05-15T07:21:49.685Z,65.00
2023-05-15T07:25:31.547Z,65.30
2023-05-15T07:29:13.353Z,64.20
2023-05-15T07:32:55.430Z,64.00
2023-05-15T07:36:37.341Z,64.80
2023-05-15T07:40:19.169Z,64.90
2023-05-15T07:44:01.118Z,66.50
2023-05-15T07:47:47.308Z,66.10
2023-05-15T07:51:29.355Z,65.00
2023-05-15T07:55:11.719Z,65.40
2023-05-15T07:58:54.141Z,64.50
2023-05-15T08:02:36.994Z,64.60
2023-05-15T08:06:19.052Z,65.00
2023-05-15T08:10:01.003Z,65.00
2023-05-15T08:13:43.144Z,64.50
2023-05-15T08:17:26.107Z,62.60
2023-05-15T08:21:08.235Z,60.40
2023-05-15T08:24:50.038Z,59.40
2023-05-15T08:28:32.100Z,57.60
2023-05-15T08:32:13.925Z,56.00
2023-05-15T08:35:55.828Z,53.30
2023-05-15T08:39:37.783Z,53.00
2023-05-15T08:43:22.716Z,51.90
2023-05-15T08:47:06.043Z,53.40
2023-05-15T08:50:48.867Z,54.10
2023-05-15T08:54:31.231Z,53.40
2023-05-15T08:58:14.028Z,53.70
2023-05-15T09:01:57.100Z,52.10
2023-05-15T09:05:40.152Z,52.90
2023-05-15T09:09:24.243Z,53.70
2023-05-15T09:13:08.179Z,53.30
2023-05-15T09:16:53.291Z,53.90
2023-05-15T09:20:37.590Z,54.40
2023-05-15T09:24:26.480Z,55.40
2023-05-15T09:28:32.934Z,54.10
2023-05-15T09:32:15.359Z,54.30
2023-05-15T09:35:57.385Z,57.00
2023-05-15T09:39:43.731Z,53.30
2023-05-15T09:43:29.636Z,53.20
2023-05-15T09:47:13.515Z,51.80
2023-05-15T09:50:56.426Z,49.10
2023-05-15T09:54:38.770Z,48.70
2023-05-15T09:58:21.089Z,48.60
2023-05-15T10:02:02.949Z,48.90
2023-05-15T10:05:45.175Z,49.80
2023-05-15T10:09:31.478Z,49.00
2023-05-15T10:13:13.502Z,51.50
2023-05-15T10:16:57.396Z,49.80
2023-05-15T10:20:39.412Z,48.00
2023-05-15T10:24:22.037Z,46.70
2023-05-15T10:28:04.591Z,45.90
2023-05-15T10:31:49.117Z,45.80
2023-05-15T10:35:31.547Z,43.10
2023-05-15T10:39:13.657Z,40.70
2023-05-15T10:42:56.722Z,39.90
2023-05-15T10:46:38.971Z,38.60
2023-05-15T10:50:21.297Z,37.20
2023-05-15T10:54:06.204Z,37.60
2023-05-15T10:57:48.502Z,38.70
2023-05-15T11:01:33.107Z,38.90
2023-05-15T11:05:15.142Z,38.50
2023-05-15T11:09:22.644Z,38.80
2023-05-15T11:13:05.008Z,41.00
2023-05-15T11:16:55.850Z,38.40
2023-05-15T11:20:53.119Z,39.60
2023-05-15T11:25:06.165Z,39.90
2023-05-15T11:28:48.003Z,42.50
2023-05-15T11:32:55.858Z,38.30
2023-05-15T11:36:39.913Z,41.10
2023-05-15T11:40:25.177Z,36.50
2023-05-15T11:44:07.619Z,35.90
2023-05-15T11:47:49.937Z,34.60
2023-05-15T11:51:31.883Z,34.20
2023-05-15T11:55:14.073Z,34.10
2023-05-15T11:58:57.751Z,36.00
2023-05-15T12:02:39.610Z,36.70
2023-05-15T12:06:21.870Z,37.50
2023-05-15T12:10:03.770Z,38.00
2023-05-15T12:13:45.592Z,36.90
2023-05-15T12:17:27.836Z,36.00
2023-05-15T12:21:11.044Z,36.20
2023-05-15T12:24:52.902Z,35.90
2023-05-15T12:28:36.576Z,36.50
2023-05-15T12:32:18.615Z,37.60
2023-05-15T12:36:01.764Z,37.70
2023-05-15T12:40:00.228Z,38.30
2023-05-15T12:43:42.087Z,39.80
2023-05-15T12:47:27.941Z,38.10
2023-05-15T12:51:09.887Z,38.00
2023-05-15T12:54:51.830Z,36.70
2023-05-15T12:58:33.934Z,34.60
2023-05-15T13:02:17.678Z,33.60
2023-05-15T13:06:01.933Z,33.90
2023-05-15T13:09:44.901Z,35.30
2023-05-15T13:13:47.372Z,36.60
2023-05-15T13:17:30.802Z,37.40
2023-05-15T13:21:12.729Z,35.50
2023-05-15T13:24:54.539Z,35.50
2023-05-15T13:28:36.369Z,34.70
2023-05-15T13:32:18.221Z,33.60
2023-05-15T13:36:00.045Z,32.70
2023-05-15T13:39:41.854Z,32.60
2023-05-15T13:43:26.351Z,32.60
2023-05-15T13:47:08.436Z,31.90
2023-05-15T13:50:50.326Z,31.00
2023-05-15T13:54:32.192Z,31.40
2023-05-15T13:58:14.273Z,33.10
2023-05-15T14:01:56.113Z,33.70
2023-05-15T14:05:37.998Z,33.50
2023-05-15T14:09:19.760Z,32.80
2023-05-15T14:13:01.690Z,32.50
2023-05-15T14:16:43.738Z,33.20
2023-05-15T14:20:25.750Z,32.30
2023-05-15T14:24:08.003Z,32.80
2023-05-15T14:27:49.924Z,33.30
2023-05-15T14:31:31.733Z,34.90
2023-05-15T14:35:13.608Z,35.50
2023-05-15T14:38:55.427Z,36.30
2023-05-15T14:42:37.642Z,38.10
2023-05-15T14:46:19.637Z,38.00
2023-05-15T14:50:01.605Z,37.30
2023-05-15T14:53:44.486Z,37.00
2023-05-15T14:57:26.383Z,38.40
2023-05-15T15:01:08.618Z,37.20
2023-05-15T15:04:51.043Z,37.80
2023-05-15T15:08:32.868Z,39.00
2023-05-15T15:12:14.684Z,38.50
2023-05-15T15:15:57.209Z,37.50
2023-05-15T15:19:39.050Z,37.80
2023-05-15T15:23:20.938Z,38.80
2023-05-15T15:27:02.784Z,38.70
2023-05-15T15:30:44.650Z,39.00
2023-05-15T15:34:27.047Z,38.40
2023-05-15T15:38:11.543Z,38.70
2023-05-15T15:41:54.477Z,39.10
2023-05-15T15:45:36.369Z,38.70
2023-05-15T15:49:18.387Z,39.70
2023-05-15T15:53:00.325Z,39.60
2023-05-15T15:56:43.004Z,40.50
2023-05-15T16:00:25.093Z,39.40
2023-05-15T16:04:07.471Z,39.10
2023-05-15T16:07:49.389Z,39.80
2023-05-15T16:11:31.211Z,39.30
2023-05-15T16:15:23.383Z,39.70
2023-05-15T16:19:05.784Z,40.10
2023-05-15T16:22:47.680Z,40.70
2023-05-15T16:26:29.587Z,40.80
2023-05-15T16:30:12.197Z,40.90
2023-05-15T16:33:54.026Z,40.80
2023-05-15T16:37:35.869Z,40.50
2023-05-15T16:41:17.724Z,41.50
2023-05-15T16:44:59.505Z,41.30
2023-05-15T16:48:41.370Z,41.60
2023-05-15T16:52:23.188Z,40.90
2023-05-15T16:56:05.339Z,41.70
2023-05-15T16:59:47.969Z,41.40
2023-05-15T17:03:30.423Z,40.30
2023-05-15T17:07:14.642Z,40.60
2023-05-15T17:10:56.823Z,40.60
2023-05-15T17:14:38.653Z,40.70
2023-05-15T17:18:20.604Z,40.70
2023-05-15T17:22:02.549Z,40.90
2023-05-15T17:25:45.002Z,41.50
2023-05-15T17:29:26.915Z,41.50
2023-05-15T17:33:08.854Z,41.50
2023-05-15T17:36:51.522Z,40.80
2023-05-15T17:40:34.011Z,41.00
2023-05-15T17:44:16.228Z,41.30
2023-05-15T17:48:03.698Z,41.80
2023-05-15T17:51:45.642Z,41.60
2023-05-15T17:55:27.741Z,41.50
2023-05-15T17:59:09.809Z,41.00
2023-05-15T18:02:51.825Z,41.90
2023-05-15T18:06:36.411Z,41.20
2023-05-15T18:10:18.272Z,41.60
2023-05-15T18:14:00.197Z,42.40
2023-05-15T18:17:42.098Z,42.00
2023-05-15T18:21:24.205Z,42.20
2023-05-15T18:25:06.628Z,42.50
2023-05-15T18:28:49.423Z,43.40
2023-05-15T18:32:31.314Z,43.80
2023-05-15T18:36:13.149Z,43.70
2023-05-15T18:39:58.829Z,44.30
2023-05-15T18:43:40.691Z,44.50
2023-05-15T18:47:22.544Z,44.40
2023-05-15T18:51:04.578Z,45.00
2023-05-15T18:54:46.525Z,45.20
2023-05-15T18:58:28.564Z,45.60
2023-05-15T19:02:11.171Z,45.70
2023-05-15T19:05:53.741Z,45.70
2023-05-15T19:09:36.388Z,46.10
2023-05-15T19:13:19.581Z,46.30
2023-05-15T19:17:01.638Z,46.70
2023-05-15T19:20:44.257Z,47.10
2023-05-15T19:24:26.905Z,47.40
2023-05-15T19:28:09.770Z,47.00
2023-05-15T19:31:52.257Z,47.50
2023-05-15T19:35:36.710Z,47.50
2023-05-15T19:39:19.563Z,48.20
2023-05-15T19:43:01.516Z,48.50
2023-05-15T19:46:45.195Z,48.50
2023-05-15T19:50:27.635Z,48.80
2023-05-15T19:54:11.238Z,49.70
2023-05-15T19:57:56.216Z,49.80
2023-05-15T20:01:38.810Z,50.10
2023-05-15T20:05:20.796Z,50.70
2023-05-15T20:09:02.723Z,51.60
2023-05-15T20:12:45.714Z,51.20
2023-05-15T20:16:27.609Z,51.90
2023-05-15T20:20:13.228Z,51.80
2023-05-15T20:23:55.061Z,54.10
2023-05-15T20:27:37.007Z,55.20
2023-05-15T20:31:21.707Z,55.00
2023-05-15T20:35:03.885Z,55.10
2023-05-15T20:38:46.854Z,55.60
2023-05-15T20:42:29.065Z,55.70
2023-05-15T20:46:11.103Z,56.20
2023-05-15T20:49:52.964Z,56.30
2023-05-15T20:53:34.814Z,56.40
2023-05-15T20:57:17.027Z,56.80
2023-05-15T21:01:01.181Z,57.50
2023-05-15T21:04:44.030Z,57.90
2023-05-15T21:08:27.785Z,58.30
2023-05-15T21:12:09.857Z,59.00
2023-05-15T21:15:51.818Z,59.80
2023-05-15T21:19:33.594Z,60.40
2023-05-15T21:23:16.458Z,60.70
2023-05-15T21:26:58.302Z,61.10
2023-05-15T21:30:40.293Z,61.20
2023-05-15T21:34:22.174Z,61.30
2023-05-15T21:38:04.043Z,61.60
2023-05-15T21:41:45.978Z,61.80
2023-05-15T21:45:27.838Z,62.10
2023-05-15T21:49:09.610Z,62.50
2023-05-15T21:52:51.776Z,62.60
2023-05-15T21:56:33.676Z,62.60
2023-05-15T22:00:16.302Z,63.20
2023-05-15T22:03:58.236Z,63.40
2023-05-15T22:07:40.447Z,63.70
2023-05-15T22:11:22.417Z,63.90
2023-05-15T22:15:04.654Z,64.10
2023-05-15T22:18:47.611Z,64.70
2023-05-15T22:22:29.618Z,65.00
2023-05-15T22:26:11.651Z,65.40
2023-05-15T22:29:54.795Z,65.90
2023-05-15T22:33:36.869Z,66.10
2023-05-15T22:37:18.775Z,66.50
2023-05-15T22:41:00.693Z,67.00
2023-05-15T22:44:42.506Z,67.30
2023-05-15T22:48:24.385Z,67.60
2023-05-15T22:52:07.021Z,67.90
2023-05-15T22:55:49.164Z,68.30
2023-05-15T22:59:31.285Z,67.70
2023-05-15T23:03:13.204Z,67.90
2023-05-15T23:06:55.802Z,67.00
2023-05-15T23:10:37.632Z,67.00
2023-05-15T23:14:19.472Z,66.50
2023-05-15T23:18:01.456Z,66.70
2023-05-15T23:21:43.311Z,67.70
2023-05-15T23:25:25.065Z,67.80
2023-05-15T23:29:06.971Z,67.00
2023-05-15T23:32:48.902Z,67.00
2023-05-15T23:36:30.833Z,66.80
2023-05-15T23:40:13.481Z,66.90
2023-05-15T23:43:55.450Z,67.00
2023-05-15T23:47:37.332Z,67.00
2023-05-15T23:51:19.210Z,67.00
2023-05-15T23:55:01.098Z,67.20
2023-05-15T23:58:43.011Z,67.20
